West Lima, Wisconsin
Current Conditions -  °F | °C
As of 6:35 PM on Sunday 25 Jan 2015 (Local Time) from KY51 Reporting Station
Broken Clouds Broken Clouds  
Wind Chill: 13°   Ceiling: 11000
Heat Index: 19°   Visibility: 10mi
Dew Point: 12°   Wind: 5mph
Humidity: 74%   Direction: 100°E
Pressure: 30"   Gusts: NA
Location:  43.6192°N, 90.6193°W
Report Text: KY51 260035Z AUTO 10004KT 10SM BKN110 M07/M11 A3000 RMK AO1 T10711111
Loading
Personal Weather Stations






























Interactive Weather Map New forecast layout! Learn more

10-Day Weather Forecast

Advertisements
Track Severe Weather on mobile